Archival Weather

Norman Y Mineta San Jose Intl

San Jose, California (KSJC)

Report from: Tuesday, February 27, 2024 8:53 AM PST
Current time: Saturday, June 22, 2024 3:31 AM PDT

Current weather – Weather history – Daily summaries
Weather forecast

Temperature12.8°C (55.0°F)
Dew point0.6°C (33.1°F)
Winds 8 kts (4.1 m/s, 9.2 mph) North (350°)
Visibility10 mi. (16.1 km)
Clouds Few clouds 1,800 ft. (549 m)
Scattered clouds 9,000 ft. (2,743 m)
Altimeter30.10 in.Hg (1019 mB)
Relative humidity43 %
Density altitude-361 ft. (-110 m)
Sea-level pressure101.9 kPa (1019 mB, 30.09 in.Hg)
Remarks System requires maintenance
Automated weather observing station with precipitation discriminator
Flight conditions Visual Meteorological Conditions
Raw dataKSJC 271653Z 35008KT 10SM FEW018 SCT090 13/01 A3010 RMK AO2 SLP191 T01280006 $
An error has occurred. This application may no longer respond until reloaded. Reload 🗙